Latest Coastal Weather Observations for Lombadina

IDW60701

Issued at 12:55 pm WST Wednesday 30 July 2014 (issued every 10 minutes, with the page automatically refreshed every 10 minutes)

About coastal observations | Map of coastal stations | Coastal observations for WA | Marine services | Other Formats
Station Details ID: 503016 Name: LOMBADINA AIRSTRIP Lat: -16.52 Lon: 122.92 Height: 42.0 m
Data from the previous 72 hours. | See also: Recent months for locations in Western Australia
Date/Time
WST
Temp

°C
Wind Pressure Rain
since 9am
mm
Weather Cloud Vis
km
Sea
Height
m
Swell
Dir
 
Speed
knots
Gust
knots
hPa Trend Height
m
Period
s
Dir
30/12:30pm 29.6 ENE 2 5 1015.3 - 0.0 - - 10 - - - -
30/12:00pm 28.6 E 4 7 1015.5 - 0.0 - - 10 - - - -
30/11:30am 27.8 ESE 4 7 1016.1 - 0.0 - - 10 - - - -
30/11:00am 27.3 E 5 8 1016.2 - 0.0 - - 10 - - - -
30/10:30am 26.8 SE 6 9 1016.8 - 0.0 - - 10 - - - -
30/10:00am 26.4 ESE 6 10 1016.9 - 0.0 - - 10 - - - -
30/09:30am 25.9 ESE 6 9 1017.3 - 0.0 - - 10 - - - -
30/09:00am 25.1 ESE 6 10 1017.1 - 0.0 - - 10 - - - -
30/08:30am 24.1 ESE 5 10 1017.4 - 0.0 - - 10 - - - -
30/08:00am 23.1 SE 5 9 1016.9 - 0.0 - - 10 - - - -
30/07:30am 22.1 SE 4 7 1016.9 - 0.0 - - 10 - - - -
30/07:00am 21.4 SE 3 6 1016.4 - 0.0 - - 10 - - - -
30/06:30am 20.8 SE 4 7 1016.4 - 0.0 - - 10 - - - -
30/06:00am 21.2 SE 5 9 1016.0 - 0.0 - - 10 - - - -
30/05:30am 21.4 ESE 5 8 1015.8 - 0.0 - - 10 - - - -
30/05:00am 21.6 SE 4 6 1015.1 - 0.0 - Partly cloudy 10 - - - -
30/04:30am 23.0 SSE 5 7 1015.1 - 0.0 - Partly cloudy 10 - - - -
30/04:00am 23.1 SSE 4 8 1014.8 - 0.0 - Partly cloudy 10 - - - -
30/03:30am 23.0 S 5 9 1014.9 - 0.0 - - 10 - - - -
30/03:00am 23.4 S 4 7 1014.6 - 0.0 - - 10 - - - -
30/02:30am 24.0 S 5 9 1015.0 - 0.0 - - 10 - - - -
30/02:00am 23.2 S 4 7 1014.9 - 0.0 - Partly cloudy 10 - - - -
30/01:30am 23.2 S 3 7 1015.4 - 0.0 - Partly cloudy 10 - - - -
30/01:00am 23.5 S 3 6 1015.3 - 0.0 - Partly cloudy 10 - - - -
30/12:30am 23.2 SSW 3 6 1015.5 - 0.0 - Partly cloudy 10 - - - -
30/12:00am 22.7 SSW 3 6 1015.5 - 0.0 - Partly cloudy 10 - - - -
 
Date/Time
WST
Temp

°C
Wind Pressure Rain
since 9am
mm
Weather Cloud Vis
km
Sea
Height
m
Swell
Dir
 
Speed
knots
Gust
knots
hPa Trend Height
m
Period
s
Dir
29/11:30pm 22.1 SSW 3 6 1015.8 - 0.0 - Partly cloudy 10 - - - -
29/11:00pm 22.0 SSW 4 6 1015.7 - 0.0 - Cloudy 10 - - - -
29/10:30pm 21.7 SSW 4 5 1016.0 - 0.0 - Partly cloudy 10 - - - -
29/10:00pm 21.1 SSW 4 7 1015.8 - 0.0 - - 10 - - - -
29/09:30pm 20.7 SW 3 5 1016.0 - 0.0 - - 10 - - - -
29/09:00pm 21.4 SSW 4 6 1015.9 - 0.0 - - 10 - - - -
29/08:30pm 22.0 SW 3 6 1016.0 - 0.0 - - 10 - - - -
29/08:00pm 21.1 SW 3 5 1015.6 - 0.0 - - 10 - - - -
29/07:30pm 21.0 WSW 2 4 1015.7 - 0.0 - - 10 - - - -
29/07:00pm 21.5 W 2 3 1015.4 - 0.0 - - 10 - - - -
29/06:30pm 23.2 N 3 6 1015.5 - 0.0 - - 10 - - - -
29/06:00pm 23.5 WSW 1 3 1015.1 - 0.0 - Partly cloudy 10 - - - -
29/05:30pm 25.3 NNW 2 4 1015.2 - 0.0 - Partly cloudy 10 - - - -
29/05:00pm 27.2 W 2 3 1014.7 - 0.0 - Partly cloudy 10 - - - -
29/04:30pm 27.7 NW 5 6 1014.5 - 0.0 - Partly cloudy 10 - - - -
29/04:00pm 28.5 NW 4 6 1014.2 - 0.0 - - 10 - - - -
29/03:30pm 30.5 ESE 3 6 1014.3 - 0.0 - - 10 - - - -
29/03:00pm 30.5 ESE 4 6 1014.0 - 0.0 - - 10 - - - -
29/02:30pm 30.8 E 3 5 1014.3 - 0.0 - - 10 - - - -
29/02:00pm 30.0 E 3 5 1014.4 - 0.0 - - 10 - - - -
29/01:30pm 29.5 E 5 8 1014.8 - 0.0 - - 10 - - - -
29/01:00pm 29.1 E 5 8 1014.9 - 0.0 - - 10 - - - -
29/12:30pm 29.6 ESE 5 7 1015.5 - 0.0 - - 10 - - - -
29/12:00pm 28.3 ESE 7 12 1015.8 - 0.0 - - 10 - - - -
29/11:30am 28.5 ESE 5 10 1016.2 - 0.0 - - 10 - - - -
29/11:00am 28.4 E 6 9 1016.2 - 0.0 - - 10 - - - -
29/10:30am 29.7 E 3 5 1016.6 - 0.0 - Partly cloudy 10 - - - -
29/10:00am 28.1 E 4 6 1016.9 - 0.0 - Cloudy 10 - - - -
29/09:30am 27.0 ESE 4 6 1017.3 - 0.0 - Cloudy 10 - - - -
29/09:00am 25.9 ESE 4 8 1017.1 - 0.0 - Cloudy 10 - - - -
29/08:30am 25.7 SE 2 4 1017.1 - 0.0 - Cloudy 10 - - - -
29/08:00am 24.7 SE 3 5 1016.7 - 0.0 - Cloudy 10 - - - -
29/07:30am 24.4 SE 4 6 1016.7 - 0.0 - Cloudy 10 - - - -
29/07:00am 23.2 E 3 5 1016.3 - 0.0 - Cloudy 10 - - - -
29/06:30am 22.5 ESE 3 4 1016.1 - 0.0 - Cloudy 10 - - - -
29/06:00am 22.4 E 3 5 1015.7 - 0.0 - Cloudy 10 - - - -
29/05:30am 22.8 E 4 6 1015.7 - 0.0 - Cloudy 10 - - - -
29/05:00am 22.7 ESE 3 5 1015.4 - 0.0 - Cloudy 10 - - - -
29/04:30am 22.7 ESE 3 5 1015.5 - 0.0 - Cloudy 10 - - - -
29/04:00am 22.6 ESE 3 6 1015.1 - 0.0 - Cloudy 10 - - - -
29/03:30am 23.4 SSE 3 6 1015.0 - 0.0 - Cloudy 10 - - - -
29/03:00am 22.0 SSE 2 3 1014.9 - 0.0 - Mostly cloudy 10 - - - -
29/02:30am 21.6 S 2 4 1014.9 - 0.0 - Cloudy 10 - - - -
29/02:00am 21.9 S 3 5 1014.7 - 0.0 - Cloudy 10 - - - -
29/01:30am 21.5 S 3 5 1015.0 - 0.0 - Partly cloudy 10 - - - -
29/01:00am 20.9 S 2 3 1015.1 - 0.0 - Cloudy 10 - - - -
29/12:30am 21.3 SSW 3 4 1015.4 - 0.0 - Cloudy 10 - - - -
29/12:00am 21.9 SSW 3 5 1015.2 - 0.0 - Mostly cloudy 10 - - - -
 
Date/Time
WST
Temp

°C
Wind Pressure Rain
since 9am
mm
Weather Cloud Vis
km
Sea
Height
m
Swell
Dir
 
Speed
knots
Gust
knots
hPa Trend Height
m
Period
s
Dir
28/11:30pm 20.7 S 3 4 1015.6 - 0.0 - Cloudy 10 - - - -
28/11:00pm 20.5 SSW 2 4 1015.7 - 0.0 - Partly cloudy 10 - - - -
28/10:30pm 20.5 SSW 3 5 1015.8 - 0.0 - Partly cloudy 10 - - - -
28/10:00pm 19.9 SSW 3 5 1015.7 - 0.0 - Partly cloudy 10 - - - -
28/09:30pm 20.7 SW 3 4 1015.9 - 0.0 - Partly cloudy 10 - - - -
28/09:00pm 21.0 SW 4 5 1015.7 - 0.0 - - 10 - - - -
28/08:30pm 20.5 SW 2 4 1015.8 - 0.0 - - 10 - - - -
28/08:00pm 20.1 SSW 3 4 1015.6 - 0.0 - - 10 - - - -
28/07:30pm 19.8 SSW 2 3 1015.6 - 0.0 - - 10 - - - -
28/07:00pm 20.3 CALM 0 1 1015.2 - 0.0 - - 10 - - - -
28/06:30pm 21.2 SSE 1 2 1015.1 - 0.0 - - 10 - - - -
28/06:00pm 22.2 CALM 0 2 1014.6 - 0.0 - - 10 - - - -
28/05:30pm 24.6 NW 1 3 1014.6 - 0.0 - - 10 - - - -
28/05:00pm 27.5 WNW 3 4 1014.1 - 0.0 - - 10 - - - -
28/04:30pm 28.8 NW 2 4 1014.1 - 0.0 - - 10 - - - -
28/04:00pm 29.4 NW 4 6 1013.9 - 0.0 - - 10 - - - -
28/03:30pm 29.9 WNW 4 7 1014.0 - 0.0 - - 10 - - - -
28/03:00pm 30.3 W 5 9 1013.7 - 0.0 - - 10 - - - -
28/02:30pm 30.5 W 5 8 1013.9 - 0.0 - - 10 - - - -
28/02:00pm 31.0 WSW 5 8 1014.1 - 0.0 - - 10 - - - -
28/01:30pm 31.2 W 4 7 1014.4 - 0.0 - - 10 - - - -
28/01:00pm 30.7 WNW 5 8 1014.7 - 0.0 - - 10 - - - -
28/12:30pm 31.1 WNW 5 9 1015.2 - 0.0 - - 10 - - - -
28/12:00pm 30.9 WNW 4 8 1015.5 - 0.0 - Mostly clear 10 - - - -
28/11:30am 29.8 WNW 3 5 1016.2 - 0.0 - Partly cloudy 10 - - - -
28/11:00am 29.3 NW 2 4 1016.6 - 0.0 - Partly cloudy 10 - - - -
28/10:30am 29.4 N 3 6 1017.4 - 0.0 - Partly cloudy 10 - - - -
28/10:00am 28.4 W 4 7 1017.0 - 0.0 - - 10 - - - -
28/09:30am 27.3 WSW 3 4 1017.5 - 0.0 - - 10 - - - -
28/09:00am 27.1 SW 1 3 1017.5 - 0.0 - Mostly clear 10 - - - -
28/08:30am 25.5 WNW 1 3 1017.7 - 0.0 - Partly cloudy 10 - - - -
28/08:00am 23.5 NE 1 4 1017.3 - 0.0 - Cloudy 10 - - - -
28/07:30am 20.7 CALM 0 1 1017.2 - 0.0 - Partly cloudy 10 - - - -
28/07:00am 20.0 ESE 1 4 1016.8 - 0.0 - - 10 - - - -
28/06:30am 19.3 NNW 3 6 1016.8 - 0.0 - Partly cloudy 10 - - - -
28/06:00am 18.8 NW 3 5 1016.4 - 0.0 - Mostly cloudy 10 - - - -
28/05:30am 20.2 SSW 2 3 1016.2 - 0.0 - Partly cloudy 10 - - - -
28/05:00am 22.6 S 2 5 1015.8 - 0.0 - Cloudy 10 - - - -
28/04:30am 22.7 S 3 5 1015.9 - 0.0 - Cloudy 10 - - - -
28/04:00am 23.0 S 3 6 1015.5 - 0.0 - Cloudy 10 - - - -
28/03:30am 22.7 S 3 7 1015.6 - 0.0 - Cloudy 10 - - - -
28/03:00am 21.1 S 3 4 1015.3 - 0.0 - Partly cloudy 10 - - - -
28/02:30am 22.4 S 3 5 1015.5 - 0.0 - Cloudy 10 - - - -
28/02:00am 22.6 S 3 5 1015.4 - 0.0 - Partly cloudy 10 - - - -
28/01:30am 22.4 S 3 6 1015.8 - 0.0 - Cloudy 10 - - - -
28/01:00am 21.1 S 3 4 1015.9 - 0.0 - Partly cloudy 10 - - - -
28/12:30am 20.9 SSW 3 5 1016.2 - 0.0 - Cloudy 10 - - - -
28/12:00am 22.3 SSW 4 6 1016.1 - 0.0 - Mostly cloudy 10 - - - -
 
Date/Time
WST
Temp

°C
Wind Pressure Rain
since 9am
mm
Weather Cloud Vis
km
Sea
Height
m
Swell
Dir
 
Speed
knots
Gust
knots
hPa Trend Height
m
Period
s
Dir
27/11:30pm 21.1 SSW 3 5 1016.5 - 0.0 - Cloudy 10 - - - -
27/11:00pm 22.0 SW 3 6 1016.4 - 0.0 - Cloudy 10 - - - -
27/10:30pm 21.3 SSW 3 5 1016.7 - 0.0 - Cloudy 10 - - - -
27/10:00pm 20.3 SW 3 5 1016.5 - 0.0 - Partly cloudy 10 - - - -
27/09:30pm 20.3 SW 3 5 1016.7 - 0.0 - - 10 - - - -
27/09:00pm 20.1 SW 3 4 1016.4 - 0.0 - - 10 - - - -
27/08:30pm 20.8 SW 4 5 1016.6 - 0.0 - - 10 - - - -
27/08:00pm 19.6 SW 2 3 1016.3 - 0.0 - - 10 - - - -
27/07:30pm 20.7 W 2 4 1016.4 - 0.0 - - 10 - - - -
27/07:00pm 21.1 SW 3 4 1016.0 - 0.0 - - 10 - - - -
27/06:30pm 21.0 WSW 1 2 1016.0 - 0.0 - - 10 - - - -
27/06:00pm 21.7 SW 2 3 1015.5 - 0.0 - - 10 - - - -
27/05:30pm 24.1 WNW 1 2 1015.6 - 0.0 - - 10 - - - -
27/05:00pm 27.3 WNW 1 3 1015.2 - 0.0 - - 10 - - - -
27/04:30pm 27.6 NW 4 7 1015.3 - 0.0 - - 10 - - - -
27/04:00pm 30.3 S 1 4 1015.0 - 0.0 - - 10 - - - -
27/03:30pm 29.4 ESE 3 6 1015.1 - 0.0 - - 10 - - - -
27/03:00pm 29.0 E 4 7 1014.9 - 0.0 - - 10 - - - -
27/02:30pm 30.0 NW 4 6 1015.0 - 0.0 - - 10 - - - -
27/02:00pm 29.8 ENE 5 10 1015.0 - 0.0 - - 10 - - - -
27/01:30pm 31.1 W 3 6 1015.3 - 0.0 - - 10 - - - -
27/01:00pm 30.6 NW 4 7 1015.4 - 0.0 - - 10 - - - -

Other Formats:

Comma delimited format used in spreadsheet applications
http://www.bom.gov.au/fwo/IDW60701/IDW60701.99206.axf

JavaScript Object Notation format (JSON) in row-major order
http://www.bom.gov.au/fwo/IDW60701/IDW60701.99206.json